createdAt,value
2023-03-10T00:05:25.449Z,1.00
2023-03-10T00:11:27.510Z,1.00
2023-03-10T00:17:29.615Z,1.00
2023-03-10T00:23:31.440Z,1.10
2023-03-10T00:29:33.353Z,1.20
2023-03-10T00:35:35.195Z,1.30
2023-03-10T00:41:39.175Z,1.40
2023-03-10T00:47:41.078Z,1.40
2023-03-10T00:53:43.164Z,1.40
2023-03-10T00:59:50.319Z,1.50
2023-03-10T01:05:53.034Z,1.60
2023-03-10T01:11:54.828Z,1.70
2023-03-10T01:17:56.836Z,1.60
2023-03-10T01:23:59.702Z,1.60
2023-03-10T01:30:01.978Z,1.60
2023-03-10T01:36:12.216Z,1.80
2023-03-10T01:42:15.235Z,1.80
2023-03-10T01:48:18.105Z,1.90
2023-03-10T01:54:27.012Z,1.80
2023-03-10T02:00:29.780Z,1.80
2023-03-10T02:06:33.890Z,1.90
2023-03-10T02:12:36.025Z,2.10
2023-03-10T02:18:38.327Z,2.00
2023-03-10T02:24:52.393Z,2.20
2023-03-10T02:30:56.235Z,2.20
2023-03-10T02:36:58.347Z,2.20
2023-03-10T02:43:20.504Z,2.20
2023-03-10T02:49:25.142Z,2.30
2023-03-10T02:55:26.937Z,2.20
2023-03-10T03:01:30.529Z,2.20
2023-03-10T03:07:32.642Z,2.20
2023-03-10T03:13:34.564Z,2.50
2023-03-10T03:19:36.494Z,2.40
2023-03-10T03:25:40.500Z,2.30
2023-03-10T03:31:42.633Z,2.30
2023-03-10T03:37:45.010Z,2.30
2023-03-10T03:43:47.148Z,2.40
2023-03-10T03:49:49.048Z,3.00
2023-03-10T03:55:51.496Z,4.50
2023-03-10T04:01:53.585Z,4.70
2023-03-10T04:07:55.720Z,4.40
2023-03-10T04:13:57.566Z,4.20
2023-03-10T04:20:07.112Z,4.00
2023-03-10T04:26:11.135Z,3.50
2023-03-10T04:32:13.184Z,3.20
2023-03-10T04:38:16.287Z,2.90
2023-03-10T04:44:30.498Z,2.80
2023-03-10T04:50:33.282Z,2.80
2023-03-10T04:56:35.127Z,2.60
2023-03-10T05:02:37.688Z,2.40
2023-03-10T05:08:39.761Z,2.50
2023-03-10T05:14:42.106Z,2.40
2023-03-10T05:20:43.956Z,2.40
2023-03-10T05:26:45.979Z,2.30
2023-03-10T05:32:47.934Z,2.30
2023-03-10T05:38:50.027Z,2.30
2023-03-10T05:44:52.072Z,2.30
2023-03-10T05:51:02.063Z,2.30
2023-03-10T05:57:04.311Z,2.20
2023-03-10T06:03:06.201Z,2.20
2023-03-10T06:09:08.064Z,2.20
2023-03-10T06:15:10.697Z,2.10
2023-03-10T06:21:14.994Z,1.90
2023-03-10T06:27:17.163Z,1.90
2023-03-10T06:33:19.081Z,1.90
2023-03-10T06:39:21.222Z,2.00
2023-03-10T06:45:23.411Z,1.90
2023-03-10T06:51:25.385Z,2.00
2023-03-10T06:57:27.718Z,2.10
2023-03-10T07:03:29.830Z,2.10
2023-03-10T07:09:31.761Z,2.10
2023-03-10T07:15:33.889Z,2.20
2023-03-10T07:21:35.816Z,2.20
2023-03-10T07:27:37.827Z,2.20
2023-03-10T07:33:39.866Z,2.20
2023-03-10T07:39:41.751Z,2.20
2023-03-10T07:45:43.767Z,2.20
2023-03-10T07:51:45.589Z,2.20
2023-03-10T07:57:47.449Z,2.20
2023-03-10T08:03:49.736Z,2.30
2023-03-10T08:09:52.739Z,2.30
2023-03-10T08:15:54.688Z,2.20
2023-03-10T08:21:57.955Z,2.30
2023-03-10T08:27:59.885Z,2.30
2023-03-10T08:34:01.869Z,2.40
2023-03-10T08:40:04.815Z,2.40
2023-03-10T08:46:08.679Z,2.50
2023-03-10T08:52:11.092Z,2.50
2023-03-10T08:58:13.080Z,2.60
2023-03-10T09:04:15.105Z,2.60
2023-03-10T09:10:17.463Z,2.50
2023-03-10T09:16:19.952Z,2.60
2023-03-10T09:22:21.850Z,2.60
2023-03-10T09:28:24.058Z,2.60
2023-03-10T09:34:27.849Z,2.70
2023-03-10T09:40:31.712Z,2.70
2023-03-10T09:47:07.469Z,2.70
2023-03-10T09:53:31.611Z,2.70
2023-03-10T09:59:41.073Z,2.60
2023-03-10T10:05:44.852Z,2.70
2023-03-10T10:11:46.840Z,2.70
2023-03-10T10:18:18.390Z,2.70
2023-03-10T10:24:22.661Z,2.60
2023-03-10T10:30:38.765Z,2.60
2023-03-10T10:36:56.396Z,2.70
2023-03-10T10:43:00.948Z,2.90
2023-03-10T10:49:27.563Z,2.80
2023-03-10T10:55:35.027Z,2.90
2023-03-10T11:01:52.755Z,2.80
2023-03-10T11:07:54.668Z,2.80
2023-03-10T11:14:17.770Z,2.90
2023-03-10T11:20:29.062Z,2.80
2023-03-10T11:26:59.085Z,2.80
2023-03-10T11:33:24.185Z,2.80
2023-03-10T11:39:48.531Z,3.00
2023-03-10T11:45:55.333Z,2.90
2023-03-10T11:52:01.388Z,2.90
2023-03-10T11:58:05.786Z,2.70
2023-03-10T12:04:35.627Z,2.80
2023-03-10T12:10:41.059Z,2.80
2023-03-10T12:16:44.601Z,2.80
2023-03-10T12:22:54.637Z,3.00
2023-03-10T12:29:22.987Z,3.20
2023-03-10T12:35:27.927Z,3.20
2023-03-10T12:41:29.692Z,3.20
2023-03-10T12:47:48.719Z,3.30
2023-03-10T12:53:57.432Z,3.20
2023-03-10T13:00:10.760Z,3.20
2023-03-10T13:06:18.699Z,3.20
2023-03-10T13:12:29.183Z,3.20
2023-03-10T13:18:31.272Z,3.40
2023-03-10T13:24:39.734Z,3.50
2023-03-10T13:30:41.585Z,3.50
2023-03-10T13:36:43.388Z,3.60
2023-03-10T13:42:48.085Z,3.70
2023-03-10T13:48:50.709Z,3.80
2023-03-10T13:55:04.277Z,3.80
2023-03-10T14:01:06.614Z,3.70
2023-03-10T14:07:27.586Z,3.80
2023-03-10T14:13:44.023Z,3.80
2023-03-10T14:19:48.682Z,3.70
2023-03-10T14:25:54.462Z,3.60
2023-03-10T14:31:56.353Z,3.60
2023-03-10T14:37:58.295Z,3.60
2023-03-10T14:44:01.443Z,3.70
2023-03-10T14:50:03.570Z,3.50
2023-03-10T14:56:05.764Z,3.50
2023-03-10T15:02:25.329Z,3.50
2023-03-10T15:08:30.269Z,3.60
2023-03-10T15:14:32.832Z,3.50
2023-03-10T15:20:34.715Z,3.50
2023-03-10T15:26:36.580Z,3.40
2023-03-10T15:32:38.466Z,3.50
2023-03-10T15:38:40.570Z,3.40
2023-03-10T15:44:42.625Z,3.40
2023-03-10T15:50:48.941Z,3.50
2023-03-10T15:56:50.863Z,3.40
2023-03-10T16:02:53.686Z,3.40
2023-03-10T16:08:56.485Z,3.30
2023-03-10T16:14:58.538Z,3.30
2023-03-10T16:21:02.441Z,3.30
2023-03-10T16:27:04.419Z,3.30
2023-03-10T16:33:06.657Z,3.40
2023-03-10T16:39:10.194Z,3.20
2023-03-10T16:45:12.402Z,3.20
2023-03-10T16:51:37.123Z,3.20
2023-03-10T16:57:38.981Z,3.10
2023-03-10T17:03:42.050Z,3.10
2023-03-10T17:09:45.803Z,3.00
2023-03-10T17:15:47.672Z,2.90
2023-03-10T17:21:52.303Z,2.90
2023-03-10T17:27:54.410Z,2.80
2023-03-10T17:33:59.906Z,2.80
2023-03-10T17:40:01.648Z,2.70
2023-03-10T17:46:10.989Z,2.60
2023-03-10T17:52:13.045Z,2.60
2023-03-10T17:58:15.013Z,2.60
2023-03-10T18:04:17.219Z,2.50
2023-03-10T18:10:23.334Z,2.30
2023-03-10T18:16:30.625Z,1.90
2023-03-10T18:22:33.108Z,1.50
2023-03-10T18:28:35.314Z,1.40
2023-03-10T18:34:37.217Z,1.10
2023-03-10T18:40:39.482Z,1.00
2023-03-10T18:46:41.575Z,0.90
2023-03-10T18:52:46.155Z,0.80
2023-03-10T18:58:48.126Z,0.70
2023-03-10T19:04:50.208Z,0.70
2023-03-10T19:10:57.650Z,0.50
2023-03-10T19:30:50.507Z,0.50
2023-03-10T19:36:52.315Z,0.40
2023-03-10T19:42:55.691Z,0.50
2023-03-10T19:48:57.901Z,0.40
2023-03-10T19:54:59.860Z,0.40
2023-03-10T20:01:01.856Z,0.40
2023-03-10T20:07:03.706Z,0.40
2023-03-10T20:13:05.581Z,0.30
2023-03-10T20:19:07.464Z,0.30
2023-03-10T20:25:11.564Z,0.40
2023-03-10T20:31:22.412Z,0.30
2023-03-10T20:37:24.279Z,0.30
2023-03-10T20:43:27.018Z,0.30
2023-03-10T20:49:29.605Z,0.30
2023-03-10T20:55:32.064Z,0.30
2023-03-10T21:01:36.460Z,0.30
2023-03-10T21:07:38.611Z,0.30
2023-03-10T21:13:40.986Z,0.20
2023-03-10T21:19:43.186Z,0.30
2023-03-10T21:25:45.417Z,0.30
2023-03-10T21:31:47.368Z,0.30
2023-03-10T21:37:49.490Z,0.30
2023-03-10T21:43:53.109Z,0.30
2023-03-10T21:49:55.300Z,0.20
2023-03-10T21:55:58.160Z,0.30
2023-03-10T22:01:59.899Z,0.30
2023-03-10T22:08:01.736Z,0.30
2023-03-10T22:14:03.949Z,0.30
2023-03-10T22:20:08.420Z,0.30
2023-03-10T22:26:11.871Z,0.20
2023-03-10T22:32:14.832Z,0.20
2023-03-10T22:38:16.686Z,0.30
2023-03-10T22:44:18.637Z,0.20
2023-03-10T22:50:27.370Z,0.20
2023-03-10T22:56:29.188Z,0.20
2023-03-10T23:02:31.003Z,0.20
2023-03-10T23:08:33.080Z,0.30
2023-03-10T23:14:34.836Z,0.30
2023-03-10T23:20:43.730Z,0.20
2023-03-10T23:26:45.560Z,0.10
2023-03-10T23:32:50.111Z,0.10
2023-03-10T23:38:51.940Z,0.10
2023-03-10T23:44:53.733Z,0.00
2023-03-10T23:50:55.562Z,0.10
2023-03-10T23:56:57.499Z,0.00
